Terminal Aerodrome Forecast
Issued by NWS

Home | Current Version | Previous Version | Text Only | Print | Product List | Glossary On
Versions: 1 2 3 4 5 6 7 8 9 10 11 12 13 14 15 16 17
000
FTUS45 KBYZ 170243 AAB
TAFLVM
TAF AMD
KLVM 170243Z 1703/1724 28005KT 1/2SM FG BKN002 BKN040
     FM170600 29010KT P6SM BKN040
     FM171300 23030G40KT P6SM SCT250
     FM172100 23040G50KT P6SM SCT250=

USA.gov is the U.S. government's official web portal to all federal, state and local government web resources and services.